PRIVATE WETTERSTATION BILLIGHEIM-ALLFELD                       ZURCK
Wetterdaten: Sonntag, 20.04.2014
Datum Zeit Temp. A. Temp. A. min Temp. A. max Feuchte A. Luftdruck Regen Wind Richtung Richtung Sonnenschein ET Solar Taupunkt Windchill Windben Empfang
20.04.2014 00:00 10,2 C 9,9 C 10,2 C 83 % 1008,4 hPa 0,0 l/m 0,1 km/h (0 Bft) N-NO 20 0 min 0,000 mm 0 W/m 7,4 C 10,2 C 3,2 km/h (1 Bft) 100 %
20.04.2014 00:10 10,3 C 10,2 C 10,3 C 83 % 1008,4 hPa 0,0 l/m 0,4 km/h (0 Bft) N-NO 24 0 min 0,000 mm 0 W/m 7,5 C 10,3 C 6,4 km/h (2 Bft) 100 %
20.04.2014 00:20 10,3 C 10,3 C 10,4 C 82 % 1008,4 hPa 0,0 l/m 0,1 km/h (0 Bft) NO 35 0 min 0,000 mm 0 W/m 7,4 C 10,3 C 3,2 km/h (1 Bft) 100 %
20.04.2014 00:30 10,3 C 10,3 C 10,4 C 82 % 1008,5 hPa 0,0 l/m 0,1 km/h (0 Bft) N-NO 13 0 min 0,000 mm 0 W/m 7,4 C 10,3 C 3,2 km/h (1 Bft) 100 %
20.04.2014 00:40 10,2 C 10,2 C 10,3 C 82 % 1008,3 hPa 0,0 l/m 0,0 km/h (0 Bft) N-NO 13 0 min 0,000 mm 0 W/m 7,3 C 10,2 C 1,6 km/h (1 Bft) 100 %
20.04.2014 00:50 10,1 C 10,1 C 10,2 C 83 % 1008,0 hPa 0,0 l/m 0,2 km/h (0 Bft) N-NO 13 0 min 0,000 mm 0 W/m 7,3 C 10,1 C 3,2 km/h (1 Bft) 100 %
20.04.2014 01:00 10,0 C 9,9 C 10,1 C 84 % 1007,9 hPa 0,0 l/m 0,4 km/h (0 Bft) NO 51 0 min 0,000 mm 0 W/m 7,4 C 10,0 C 6,4 km/h (2 Bft) 100 %
20.04.2014 01:10 10,1 C 9,9 C 10,1 C 84 % 1007,9 hPa 0,0 l/m 0,1 km/h (0 Bft) O-NO 57 0 min 0,000 mm 0 W/m 7,5 C 10,1 C 1,6 km/h (1 Bft) 100 %
20.04.2014 01:20 10,1 C 10,0 C 10,1 C 84 % 1007,8 hPa 0,0 l/m 0,0 km/h (0 Bft) NO 48 0 min 0,000 mm 0 W/m 7,5 C 10,1 C 1,6 km/h (1 Bft) 100 %
20.04.2014 01:30 10,2 C 10,1 C 10,2 C 84 % 1007,8 hPa 0,0 l/m 0,3 km/h (0 Bft) NO 42 0 min 0,000 mm 0 W/m 7,6 C 10,2 C 6,4 km/h (2 Bft) 100 %
20.04.2014 01:40 10,2 C 10,2 C 10,2 C 84 % 1007,6 hPa 0,0 l/m 0,1 km/h (0 Bft) NO 35 0 min 0,000 mm 0 W/m 7,6 C 10,2 C 3,2 km/h (1 Bft) 100 %
20.04.2014 01:50 10,2 C 10,2 C 10,2 C 84 % 1007,6 hPa 0,0 l/m 0,2 km/h (0 Bft) N-NO 22 0 min 0,000 mm 0 W/m 7,6 C 10,2 C 3,2 km/h (1 Bft) 100 %
20.04.2014 02:00 10,1 C 10,1 C 10,2 C 84 % 1007,2 hPa 0,0 l/m 0,5 km/h (0 Bft) N 5 0 min 0,000 mm 0 W/m 7,5 C 10,1 C 6,4 km/h (2 Bft) 100 %
20.04.2014 02:10 9,9 C 9,9 C 10,1 C 84 % 1007,1 hPa 0,0 l/m 0,2 km/h (0 Bft) N 5 0 min 0,000 mm 0 W/m 7,3 C 9,9 C 3,2 km/h (1 Bft) 100 %
20.04.2014 02:20 9,8 C 9,8 C 9,9 C 85 % 1007,0 hPa 0,0 l/m 0,0 km/h (0 Bft) N 5 0 min 0,000 mm 0 W/m 7,4 C 9,8 C 1,6 km/h (1 Bft) 100 %
20.04.2014 02:30 9,7 C 9,7 C 9,8 C 85 % 1006,9 hPa 0,0 l/m 0,1 km/h (0 Bft) N 5 0 min 0,000 mm 0 W/m 7,3 C 9,7 C 1,6 km/h (1 Bft) 100 %
20.04.2014 02:40 9,7 C 9,7 C 9,7 C 85 % 1006,8 hPa 0,0 l/m 0,4 km/h (0 Bft) N-NO 32 0 min 0,000 mm 0 W/m 7,3 C 9,7 C 6,4 km/h (2 Bft) 100 %
20.04.2014 02:50 9,7 C 9,7 C 9,7 C 85 % 1006,8 hPa 0,0 l/m 0,0 km/h (0 Bft) N-NO 18 0 min 0,000 mm 0 W/m 7,3 C 9,7 C 1,6 km/h (1 Bft) 100 %
20.04.2014 03:00 9,6 C 9,6 C 9,7 C 85 % 1006,9 hPa 0,0 l/m 0,3 km/h (0 Bft) W 259 0 min 0,000 mm 0 W/m 7,2 C 9,6 C 4,8 km/h (1 Bft) 99 %
20.04.2014 03:10 9,4 C 9,4 C 9,6 C 85 % 1006,8 hPa 0,0 l/m 0,0 km/h (0 Bft) NW 306 0 min 0,000 mm 0 W/m 7,0 C 9,4 C 1,6 km/h (1 Bft) 100 %
20.04.2014 03:20 9,3 C 9,3 C 9,4 C 86 % 1006,7 hPa 0,0 l/m 0,1 km/h (0 Bft) NW 307 0 min 0,000 mm 0 W/m 7,1 C 9,3 C 3,2 km/h (1 Bft) 100 %
20.04.2014 03:30 9,2 C 9,2 C 9,3 C 86 % 1006,5 hPa 0,0 l/m 0,0 km/h (0 Bft) NW 307 0 min 0,000 mm 0 W/m 7,0 C 9,2 C 0,0 km/h (0 Bft) 100 %
20.04.2014 03:40 9,0 C 9,0 C 9,2 C 86 % 1006,5 hPa 0,0 l/m 0,1 km/h (0 Bft) NW 307 0 min 0,000 mm 0 W/m 6,8 C 9,0 C 1,6 km/h (1 Bft) 100 %
20.04.2014 03:50 8,9 C 8,9 C 9,0 C 86 % 1006,5 hPa 0,0 l/m 0,1 km/h (0 Bft) NW 307 0 min 0,000 mm 0 W/m 6,7 C 8,9 C 3,2 km/h (1 Bft) 100 %
20.04.2014 04:00 8,7 C 8,7 C 8,9 C 86 % 1006,5 hPa 0,0 l/m 0,0 km/h (0 Bft) NW 307 0 min 0,000 mm 0 W/m 6,5 C 8,7 C 0,0 km/h (0 Bft) 100 %
20.04.2014 04:10 8,6 C 8,6 C 8,7 C 86 % 1006,5 hPa 0,0 l/m 0,0 km/h (0 Bft) NW 307 0 min 0,000 mm 0 W/m 6,4 C 8,6 C 0,0 km/h (0 Bft) 100 %
20.04.2014 04:20 8,5 C 8,5 C 8,6 C 87 % 1006,3 hPa 0,0 l/m 0,0 km/h (0 Bft) NW 307 0 min 0,000 mm 0 W/m 6,5 C 8,5 C 0,0 km/h (0 Bft) 100 %
20.04.2014 04:30 8,3 C 8,3 C 8,5 C 87 % 1006,1 hPa 0,0 l/m 0,0 km/h (0 Bft) NW 307 0 min 0,000 mm 0 W/m 6,3 C 8,3 C 0,0 km/h (0 Bft) 100 %
20.04.2014 04:40 8,2 C 8,2 C 8,3 C 87 % 1006,1 hPa 0,0 l/m 0,0 km/h (0 Bft) NW 307 0 min 0,000 mm 0 W/m 6,2 C 8,2 C 0,0 km/h (0 Bft) 100 %
20.04.2014 04:50 8,1 C 8,1 C 8,2 C 87 % 1006,1 hPa 0,0 l/m 0,0 km/h (0 Bft) NW 307 0 min 0,000 mm 0 W/m 6,1 C 8,1 C 0,0 km/h (0 Bft) 100 %
20.04.2014 05:00 8,1 C 8,1 C 8,1 C 87 % 1006,0 hPa 0,0 l/m 0,0 km/h (0 Bft) NW 307 0 min 0,000 mm 0 W/m 6,1 C 8,1 C 0,0 km/h (0 Bft) 99 %
20.04.2014 05:10 7,9 C 7,9 C 8,1 C 87 % 1005,8 hPa 0,0 l/m 0,0 km/h (0 Bft) NW 307 0 min 0,000 mm 0 W/m 5,9 C 7,9 C 0,0 km/h (0 Bft) 100 %
20.04.2014 05:20 7,8 C 7,8 C 7,9 C 87 % 1005,7 hPa 0,0 l/m 0,0 km/h (0 Bft) NW 307 0 min 0,000 mm 0 W/m 5,8 C 7,8 C 0,0 km/h (0 Bft) 100 %
20.04.2014 05:30 7,7 C 7,7 C 7,8 C 87 % 1005,6 hPa 0,0 l/m 0,0 km/h (0 Bft) NW 307 0 min 0,000 mm 0 W/m 5,7 C 7,7 C 0,0 km/h (0 Bft) 91 %
20.04.2014 05:40 7,7 C 7,7 C 7,7 C 87 % 1005,6 hPa 0,0 l/m 0,0 km/h (0 Bft) NW 307 0 min 0,000 mm 0 W/m 5,7 C 7,7 C 0,0 km/h (0 Bft) 100 %
20.04.2014 05:50 7,9 C 7,7 C 7,9 C 87 % 1005,6 hPa 0,0 l/m 0,0 km/h (0 Bft) NW 307 0 min 0,000 mm 0 W/m 5,9 C 7,9 C 0,0 km/h (0 Bft) 100 %
20.04.2014 06:00 8,1 C 7,9 C 8,1 C 87 % 1005,6 hPa 0,0 l/m 0,0 km/h (0 Bft) NW 307 0 min 0,000 mm 0 W/m 6,1 C 8,1 C 0,0 km/h (0 Bft) 100 %
20.04.2014 06:10 8,2 C 8,1 C 8,2 C 87 % 1005,5 hPa 0,0 l/m 0,0 km/h (0 Bft) NW 307 0 min 0,000 mm 0 W/m 6,2 C 8,2 C 0,0 km/h (0 Bft) 100 %
20.04.2014 06:20 8,2 C 8,2 C 8,2 C 87 % 1005,7 hPa 0,0 l/m 0,0 km/h (0 Bft) NW 307 0 min 0,000 mm 0 W/m 6,2 C 8,2 C 0,0 km/h (0 Bft) 100 %
20.04.2014 06:30 8,2 C 8,2 C 8,2 C 87 % 1005,7 hPa 0,0 l/m 0,0 km/h (0 Bft) NW 307 0 min 0,000 mm 0 W/m 6,2 C 8,2 C 0,0 km/h (0 Bft) 100 %
20.04.2014 06:40 8,3 C 8,2 C 8,3 C 87 % 1005,7 hPa 0,0 l/m 0,3 km/h (0 Bft) N-NO 17 0 min 0,000 mm 5 W/m 6,3 C 8,3 C 4,8 km/h (1 Bft) 91 %
20.04.2014 06:50 8,5 C 8,3 C 8,5 C 87 % 1005,6 hPa 0,0 l/m 0,0 km/h (0 Bft) N-NO 17 0 min 0,000 mm 14 W/m 6,5 C 8,5 C 1,6 km/h (1 Bft) 100 %
20.04.2014 07:00 8,7 C 8,5 C 8,7 C 87 % 1005,6 hPa 0,0 l/m 0,4 km/h (0 Bft) N 5 0 min 0,000 mm 26 W/m 6,7 C 8,7 C 3,2 km/h (1 Bft) 100 %
20.04.2014 07:10 8,8 C 8,7 C 8,8 C 87 % 1005,6 hPa 0,0 l/m 0,4 km/h (0 Bft) NO 38 0 min 0,000 mm 30 W/m 6,8 C 8,8 C 6,4 km/h (2 Bft) 99 %
20.04.2014 07:20 9,0 C 8,8 C 9,0 C 87 % 1005,7 hPa 0,0 l/m 0,5 km/h (0 Bft) NO 45 0 min 0,000 mm 30 W/m 7,0 C 9,0 C 6,4 km/h (2 Bft) 100 %
20.04.2014 07:30 9,2 C 9,0 C 9,2 C 87 % 1005,7 hPa 0,0 l/m 0,2 km/h (0 Bft) O-NO 62 0 min 0,000 mm 33 W/m 7,2 C 9,2 C 4,8 km/h (1 Bft) 100 %
20.04.2014 07:40 9,2 C 9,2 C 9,2 C 87 % 1005,7 hPa 0,0 l/m 0,8 km/h (0 Bft) N-NW 331 0 min 0,000 mm 44 W/m 7,2 C 9,2 C 11,3 km/h (2 Bft) 100 %
20.04.2014 07:50 9,3 C 9,2 C 9,3 C 86 % 1005,8 hPa 0,0 l/m 0,7 km/h (0 Bft) NO 48 0 min 0,000 mm 63 W/m 7,1 C 9,3 C 6,4 km/h (2 Bft) 92 %
20.04.2014 08:00 9,6 C 9,3 C 9,6 C 86 % 1005,7 hPa 0,0 l/m 0,5 km/h (0 Bft) N-NO 30 0 min 0,025 mm 58 W/m 7,4 C 9,6 C 6,4 km/h (2 Bft) 99 %
20.04.2014 08:10 9,9 C 9,6 C 9,9 C 85 % 1005,9 hPa 0,0 l/m 0,6 km/h (0 Bft) N 5 0 min 0,000 mm 65 W/m 7,5 C 9,9 C 8,0 km/h (2 Bft) 100 %
20.04.2014 08:20 10,1 C 9,9 C 10,1 C 85 % 1005,9 hPa 0,0 l/m 0,2 km/h (0 Bft) NO 44 0 min 0,000 mm 79 W/m 7,7 C 10,1 C 6,4 km/h (2 Bft) 100 %
20.04.2014 08:30 10,4 C 10,1 C 10,4 C 84 % 1006,0 hPa 0,0 l/m 0,8 km/h (0 Bft) N 11 0 min 0,000 mm 142 W/m 7,8 C 10,4 C 11,3 km/h (2 Bft) 100 %
20.04.2014 08:40 10,8 C 10,4 C 10,8 C 83 % 1006,0 hPa 0,0 l/m 0,4 km/h (0 Bft) NO 51 0 min 0,000 mm 149 W/m 8,0 C 10,8 C 6,4 km/h (2 Bft) 100 %
20.04.2014 08:50 11,2 C 10,8 C 11,2 C 83 % 1006,0 hPa 0,0 l/m 0,6 km/h (0 Bft) O-NO 59 10 min 0,000 mm 179 W/m 8,4 C 11,2 C 8,0 km/h (2 Bft) 100 %
20.04.2014 09:00 11,7 C 11,2 C 11,7 C 79 % 1005,9 hPa 0,0 l/m 2,9 km/h (1 Bft) N-NO 30 10 min 0,051 mm 193 W/m 8,2 C 11,7 C 17,7 km/h (3 Bft) 100 %
20.04.2014 09:10 12,5 C 11,7 C 12,5 C 78 % 1005,9 hPa 0,0 l/m 1,1 km/h (1 Bft) SW 222 10 min 0,000 mm 388 W/m 8,8 C 12,5 C 9,7 km/h (2 Bft) 100 %
20.04.2014 09:20 13,6 C 12,5 C 13,6 C 74 % 1005,8 hPa 0,0 l/m 2,2 km/h (1 Bft) S-SO 165 10 min 0,000 mm 404 W/m 9,1 C 13,6 C 11,3 km/h (2 Bft) 100 %
20.04.2014 09:30 14,1 C 13,6 C 14,1 C 70 % 1005,8 hPa 0,0 l/m 4,7 km/h (1 Bft) O-SO 110 10 min 0,000 mm 429 W/m 8,7 C 14,1 C 19,3 km/h (3 Bft) 99 %
20.04.2014 09:40 14,3 C 14,1 C 14,3 C 69 % 1005,8 hPa 0,0 l/m 7,5 km/h (2 Bft) SO 125 10 min 0,000 mm 457 W/m 8,7 C 13,7 C 20,9 km/h (4 Bft) 99 %
20.04.2014 09:50 15,0 C 14,3 C 15,0 C 69 % 1005,7 hPa 0,0 l/m 3,7 km/h (1 Bft) O-NO 78 10 min 0,000 mm 483 W/m 9,4 C 15,0 C 17,7 km/h (3 Bft) 100 %
20.04.2014 10:00 15,4 C 15,0 C 15,4 C 64 % 1005,6 hPa 0,0 l/m 4,4 km/h (1 Bft) SO 128 10 min 0,229 mm 508 W/m 8,6 C 15,4 C 19,3 km/h (3 Bft) 99 %
20.04.2014 10:10 15,4 C 15,4 C 15,4 C 66 % 1005,7 hPa 0,0 l/m 4,2 km/h (1 Bft) SO 126 10 min 0,000 mm 547 W/m 9,1 C 15,4 C 14,5 km/h (3 Bft) 99 %
20.04.2014 10:20 15,5 C 15,4 C 15,6 C 64 % 1005,6 hPa 0,0 l/m 5,8 km/h (2 Bft) O-SO 115 10 min 0,000 mm 561 W/m 8,7 C 15,5 C 24,1 km/h (4 Bft) 100 %
20.04.2014 10:30 15,3 C 15,3 C 15,5 C 65 % 1005,7 hPa 0,0 l/m 4,6 km/h (1 Bft) S-SO 155 10 min 0,000 mm 171 W/m 8,8 C 15,3 C 20,9 km/h (4 Bft) 100 %
20.04.2014 10:40 15,5 C 15,3 C 15,6 C 63 % 1005,7 hPa 0,0 l/m 4,3 km/h (1 Bft) O-SO 103 10 min 0,000 mm 684 W/m 8,5 C 15,5 C 16,1 km/h (3 Bft) 100 %
20.04.2014 10:50 15,9 C 15,5 C 15,9 C 62 % 1005,7 hPa 0,0 l/m 4,7 km/h (1 Bft) SO 130 10 min 0,000 mm 652 W/m 8,6 C 15,9 C 24,1 km/h (4 Bft) 100 %
20.04.2014 11:00 16,3 C 15,9 C 16,3 C 61 % 1005,7 hPa 0,0 l/m 6,7 km/h (2 Bft) O-SO 102 10 min 0,305 mm 712 W/m 8,8 C 16,2 C 19,3 km/h (3 Bft) 100 %
20.04.2014 11:10 16,5 C 16,3 C 16,6 C 59 % 1005,8 hPa 0,0 l/m 3,1 km/h (1 Bft) O-SO 119 10 min 0,000 mm 255 W/m 8,5 C 16,5 C 16,1 km/h (3 Bft) 100 %
20.04.2014 11:20 16,6 C 16,3 C 16,6 C 60 % 1005,8 hPa 0,0 l/m 4,7 km/h (1 Bft) O-SO 103 10 min 0,000 mm 234 W/m 8,8 C 16,6 C 17,7 km/h (3 Bft) 100 %
20.04.2014 11:30 16,6 C 16,6 C 16,7 C 59 % 1005,6 hPa 0,0 l/m 4,2 km/h (1 Bft) S 183 10 min 0,000 mm 283 W/m 8,6 C 16,6 C 12,9 km/h (3 Bft) 100 %
20.04.2014 11:40 16,7 C 16,6 C 16,7 C 60 % 1005,6 hPa 0,0 l/m 5,4 km/h (1 Bft) O-SO 119 10 min 0,000 mm 798 W/m 8,9 C 16,7 C 16,1 km/h (3 Bft) 100 %
20.04.2014 11:50 17,4 C 16,7 C 17,4 C 58 % 1005,5 hPa 0,0 l/m 2,0 km/h (1 Bft) S 188 10 min 0,000 mm 724 W/m 9,1 C 17,4 C 12,9 km/h (3 Bft) 100 %
20.04.2014 12:00 16,8 C 16,8 C 17,5 C 56 % 1005,5 hPa 0,0 l/m 5,2 km/h (1 Bft) SO 144 10 min 0,330 mm 174 W/m 8,0 C 16,8 C 17,7 km/h (3 Bft) 100 %
20.04.2014 12:10 16,6 C 16,5 C 16,8 C 60 % 1005,4 hPa 0,0 l/m 5,1 km/h (1 Bft) N-NO 27 10 min 0,000 mm 851 W/m 8,8 C 16,6 C 17,7 km/h (3 Bft) 100 %
20.04.2014 12:20 16,8 C 16,6 C 16,8 C 56 % 1005,3 hPa 0,0 l/m 4,1 km/h (1 Bft) O-NO 71 10 min 0,000 mm 905 W/m 8,0 C 16,8 C 20,9 km/h (4 Bft) 100 %
20.04.2014 12:30 17,1 C 16,8 C 17,1 C 59 % 1005,4 hPa 0,0 l/m 2,5 km/h (1 Bft) O-SO 121 10 min 0,000 mm 877 W/m 9,0 C 17,1 C 11,3 km/h (2 Bft) 100 %
20.04.2014 12:40 17,2 C 17,1 C 17,2 C 55 % 1005,4 hPa 0,0 l/m 1,2 km/h (1 Bft) N-NO 13 10 min 0,000 mm 870 W/m 8,1 C 17,2 C 9,7 km/h (2 Bft) 100 %
20.04.2014 12:50 17,5 C 17,2 C 17,5 C 56 % 1005,0 hPa 0,0 l/m 2,9 km/h (1 Bft) O-SO 107 10 min 0,000 mm 914 W/m 8,6 C 17,5 C 16,1 km/h (3 Bft) 100 %
20.04.2014 13:00 18,2 C 17,5 C 18,2 C 52 % 1005,0 hPa 0,0 l/m 3,4 km/h (1 Bft) O-NO 75 10 min 0,330 mm 884 W/m 8,2 C 18,2 C 14,5 km/h (3 Bft) 100 %
20.04.2014 13:10 18,3 C 18,2 C 18,3 C 52 % 1004,8 hPa 0,0 l/m 7,7 km/h (2 Bft) S 188 10 min 0,000 mm 858 W/m 8,3 C 17,7 C 24,1 km/h (4 Bft) 100 %
20.04.2014 13:20 18,5 C 18,2 C 18,5 C 53 % 1005,0 hPa 0,0 l/m 5,1 km/h (1 Bft) O-SO 111 10 min 0,000 mm 912 W/m 8,7 C 18,5 C 29,0 km/h (5 Bft) 100 %
20.04.2014 13:30 18,1 C 18,1 C 18,5 C 50 % 1005,0 hPa 0,0 l/m 3,7 km/h (1 Bft) O-NO 57 10 min 0,000 mm 216 W/m 7,5 C 18,1 C 14,5 km/h (3 Bft) 100 %
20.04.2014 13:40 18,2 C 17,9 C 18,2 C 50 % 1004,8 hPa 0,0 l/m 2,5 km/h (1 Bft) O 95 10 min 0,000 mm 355 W/m 7,6 C 18,2 C 16,1 km/h (3 Bft) 100 %
20.04.2014 13:50 17,9 C 17,9 C 18,2 C 51 % 1004,9 hPa 0,0 l/m 5,3 km/h (1 Bft) O-SO 119 10 min 0,000 mm 304 W/m 7,6 C 17,9 C 16,1 km/h (3 Bft) 100 %
20.04.2014 14:00 17,7 C 17,7 C 17,9 C 50 % 1004,9 hPa 0,0 l/m 1,5 km/h (1 Bft) N-NO 26 10 min 0,356 mm 204 W/m 7,1 C 17,7 C 8,0 km/h (2 Bft) 100 %
20.04.2014 14:10 17,5 C 17,4 C 17,8 C 53 % 1004,7 hPa 0,0 l/m 3,0 km/h (1 Bft) S-SO 151 10 min 0,000 mm 258 W/m 7,8 C 17,5 C 14,5 km/h (3 Bft) 100 %
20.04.2014 14:20 17,3 C 17,3 C 17,5 C 52 % 1004,9 hPa 0,0 l/m 4,7 km/h (1 Bft) SO 143 10 min 0,000 mm 190 W/m 7,3 C 17,3 C 17,7 km/h (3 Bft) 100 %
20.04.2014 14:30 17,1 C 17,1 C 17,3 C 54 % 1004,7 hPa 0,0 l/m 1,9 km/h (1 Bft) O 85 10 min 0,000 mm 232 W/m 7,7 C 17,1 C 9,7 km/h (2 Bft) 100 %
20.04.2014 14:40 17,2 C 17,1 C 17,2 C 51 % 1004,7 hPa 0,0 l/m 1,6 km/h (1 Bft) S-SW 196 10 min 0,000 mm 239 W/m 7,0 C 17,2 C 14,5 km/h (3 Bft) 100 %
20.04.2014 14:50 17,2 C 17,1 C 17,2 C 51 % 1004,8 hPa 0,0 l/m 2,1 km/h (1 Bft) O-SO 123 10 min 0,000 mm 332 W/m 7,0 C 17,2 C 11,3 km/h (2 Bft) 100 %
20.04.2014 15:00 17,2 C 17,2 C 17,3 C 49 % 1004,8 hPa 0,0 l/m 3,2 km/h (1 Bft) SO 125 10 min 0,152 mm 207 W/m 6,4 C 17,2 C 11,3 km/h (2 Bft) 100 %
20.04.2014 15:10 17,3 C 17,2 C 17,3 C 49 % 1004,8 hPa 0,0 l/m 3,5 km/h (1 Bft) O-SO 119 10 min 0,000 mm 459 W/m 6,5 C 17,3 C 16,1 km/h (3 Bft) 100 %
20.04.2014 15:20 17,7 C 17,3 C 17,8 C 49 % 1004,7 hPa 0,0 l/m 6,1 km/h (2 Bft) O 87 10 min 0,000 mm 396 W/m 6,9 C 17,7 C 22,5 km/h (4 Bft) 100 %
20.04.2014 15:30 17,8 C 17,7 C 17,8 C 51 % 1004,6 hPa 0,0 l/m 3,7 km/h (1 Bft) O-NO 76 10 min 0,000 mm 227 W/m 7,5 C 17,8 C 16,1 km/h (3 Bft) 100 %
20.04.2014 15:40 17,6 C 17,6 C 17,8 C 52 % 1004,5 hPa 0,0 l/m 5,2 km/h (1 Bft) S-SO 164 10 min 0,000 mm 297 W/m 7,6 C 17,6 C 16,1 km/h (3 Bft) 100 %
20.04.2014 15:50 18,2 C 17,6 C 18,2 C 52 % 1004,4 hPa 0,0 l/m 5,2 km/h (1 Bft) O 82 10 min 0,000 mm 798 W/m 8,2 C 18,2 C 20,9 km/h (4 Bft) 100 %
20.04.2014 16:00 18,2 C 18,2 C 18,3 C 50 % 1004,2 hPa 0,0 l/m 8,1 km/h (2 Bft) O-SO 104 10 min 0,279 mm 308 W/m 7,6 C 17,4 C 22,5 km/h (4 Bft) 100 %
20.04.2014 16:10 17,7 C 17,7 C 18,2 C 48 % 1004,1 hPa 0,0 l/m 7,6 km/h (2 Bft) O 100 10 min 0,000 mm 234 W/m 6,6 C 17,1 C 20,9 km/h (4 Bft) 100 %
20.04.2014 16:20 17,3 C 17,3 C 17,7 C 48 % 1004,0 hPa 0,0 l/m 3,5 km/h (1 Bft) SO 128 0 min 0,000 mm 118 W/m 6,2 C 17,3 C 12,9 km/h (3 Bft) 100 %
20.04.2014 16:30 17,5 C 17,3 C 17,5 C 48 % 1003,9 hPa 0,0 l/m 10,4 km/h (2 Bft) S-SO 156 10 min 0,000 mm 431 W/m 6,4 C 15,7 C 22,5 km/h (4 Bft) 100 %
20.04.2014 16:40 17,9 C 17,5 C 17,9 C 50 % 1003,9 hPa 0,0 l/m 8,5 km/h (2 Bft) O-SO 111 10 min 0,000 mm 343 W/m 7,3 C 16,9 C 22,5 km/h (4 Bft) 100 %
20.04.2014 16:50 18,3 C 17,9 C 18,3 C 49 % 1003,7 hPa 0,0 l/m 7,2 km/h (2 Bft) O 99 10 min 0,000 mm 250 W/m 7,4 C 17,9 C 20,9 km/h (4 Bft) 100 %
20.04.2014 17:00 18,3 C 18,3 C 18,4 C 45 % 1003,7 hPa 0,0 l/m 10,4 km/h (2 Bft) O-SO 120 10 min 0,229 mm 520 W/m 6,2 C 16,6 C 24,1 km/h (4 Bft) 100 %
20.04.2014 17:10 18,6 C 18,3 C 18,6 C 46 % 1003,7 hPa 0,0 l/m 8,7 km/h (2 Bft) O-SO 115 10 min 0,000 mm 420 W/m 6,8 C 17,6 C 22,5 km/h (4 Bft) 100 %
20.04.2014 17:20 18,7 C 18,6 C 18,7 C 44 % 1003,6 hPa 0,0 l/m 7,5 km/h (2 Bft) O-SO 123 0 min 0,000 mm 67 W/m 6,2 C 18,2 C 24,1 km/h (4 Bft) 100 %
20.04.2014 17:30 18,6 C 18,6 C 18,7 C 46 % 1003,4 hPa 0,0 l/m 6,7 km/h (2 Bft) SO 128 0 min 0,000 mm 60 W/m 6,8 C 18,5 C 25,7 km/h (4 Bft) 100 %
20.04.2014 17:40 18,5 C 18,5 C 18,6 C 47 % 1003,3 hPa 0,0 l/m 6,2 km/h (2 Bft) O-NO 78 0 min 0,000 mm 54 W/m 7,0 C 18,5 C 24,1 km/h (4 Bft) 100 %
20.04.2014 17:50 18,6 C 18,5 C 18,6 C 47 % 1003,4 hPa 0,0 l/m 3,1 km/h (1 Bft) O 89 0 min 0,000 mm 53 W/m 7,1 C 18,6 C 16,1 km/h (3 Bft) 100 %
20.04.2014 18:00 18,4 C 18,4 C 18,6 C 46 % 1003,4 hPa 0,0 l/m 7,4 km/h (2 Bft) SO 129 0 min 0,152 mm 56 W/m 6,6 C 17,9 C 22,5 km/h (4 Bft) 100 %
20.04.2014 18:10 18,4 C 18,4 C 18,4 C 44 % 1003,4 hPa 0,0 l/m 6,3 km/h (2 Bft) O-SO 105 0 min 0,000 mm 91 W/m 5,9 C 18,4 C 20,9 km/h (4 Bft) 100 %
20.04.2014 18:20 18,3 C 18,3 C 18,4 C 45 % 1003,4 hPa 0,0 l/m 5,4 km/h (1 Bft) SO 135 0 min 0,000 mm 113 W/m 6,2 C 18,3 C 17,7 km/h (3 Bft) 100 %
20.04.2014 18:30 18,4 C 18,3 C 18,4 C 46 % 1003,3 hPa 0,0 l/m 5,0 km/h (1 Bft) S 173 10 min 0,000 mm 163 W/m 6,6 C 18,4 C 16,1 km/h (3 Bft) 100 %
20.04.2014 18:40 18,4 C 18,4 C 18,5 C 44 % 1003,3 hPa 0,0 l/m 7,7 km/h (2 Bft) O-SO 105 0 min 0,000 mm 83 W/m 5,9 C 17,8 C 20,9 km/h (4 Bft) 100 %
20.04.2014 18:50 18,0 C 18,0 C 18,4 C 48 % 1003,3 hPa 0,0 l/m 2,5 km/h (1 Bft) O-SO 116 0 min 0,000 mm 28 W/m 6,8 C 18,0 C 19,3 km/h (3 Bft) 100 %
20.04.2014 19:00 17,5 C 17,5 C 18,0 C 51 % 1003,4 hPa 0,0 l/m 1,2 km/h (1 Bft) S-SW 198 0 min 0,102 mm 28 W/m 7,3 C 17,5 C 9,7 km/h (2 Bft) 100 %
20.04.2014 19:10 16,9 C 16,9 C 17,5 C 52 % 1003,4 hPa 0,0 l/m 1,3 km/h (1 Bft) SO 136 0 min 0,000 mm 32 W/m 7,0 C 16,9 C 14,5 km/h (3 Bft) 100 %
20.04.2014 19:20 16,6 C 16,6 C 16,9 C 55 % 1003,4 hPa 0,0 l/m 1,1 km/h (1 Bft) N-NO 21 0 min 0,000 mm 30 W/m 7,5 C 16,6 C 11,3 km/h (2 Bft) 100 %
20.04.2014 19:30 16,1 C 16,1 C 16,6 C 57 % 1003,5 hPa 0,0 l/m 1,6 km/h (1 Bft) O 101 0 min 0,000 mm 25 W/m 7,6 C 16,1 C 16,1 km/h (3 Bft) 100 %
20.04.2014 19:40 15,8 C 15,8 C 16,1 C 58 % 1003,5 hPa 0,0 l/m 0,3 km/h (0 Bft) O 97 0 min 0,000 mm 19 W/m 7,6 C 15,8 C 6,4 km/h (2 Bft) 100 %
20.04.2014 19:50 15,5 C 15,5 C 15,8 C 59 % 1003,6 hPa 0,0 l/m 0,7 km/h (0 Bft) SO 132 0 min 0,000 mm 12 W/m 7,5 C 15,5 C 8,0 km/h (2 Bft) 100 %
20.04.2014 20:00 15,2 C 15,2 C 15,5 C 58 % 1003,7 hPa 0,0 l/m 0,6 km/h (0 Bft) N-NO 23 0 min 0,025 mm 7 W/m 7,0 C 15,2 C 8,0 km/h (2 Bft) 100 %
20.04.2014 20:10 15,1 C 15,1 C 15,2 C 58 % 1003,8 hPa 0,0 l/m 0,5 km/h (0 Bft) O-SO 122 0 min 0,000 mm 5 W/m 6,9 C 15,1 C 4,8 km/h (1 Bft) 100 %
20.04.2014 20:20 14,7 C 14,7 C 15,1 C 60 % 1003,8 hPa 0,0 l/m 0,4 km/h (0 Bft) NO 39 0 min 0,000 mm 0 W/m 7,0 C 14,7 C 6,4 km/h (2 Bft) 100 %
20.04.2014 20:30 14,2 C 14,2 C 14,7 C 61 % 1003,8 hPa 0,0 l/m 0,0 km/h (0 Bft) N-NO 27 0 min 0,000 mm 0 W/m 6,8 C 14,2 C 1,6 km/h (1 Bft) 100 %
20.04.2014 20:40 13,8 C 13,8 C 14,2 C 61 % 1004,0 hPa 0,0 l/m 0,2 km/h (0 Bft) N-NW 340 0 min 0,000 mm 0 W/m 6,4 C 13,8 C 6,4 km/h (2 Bft) 100 %
20.04.2014 20:50 13,5 C 13,5 C 13,8 C 62 % 1004,1 hPa 0,0 l/m 0,3 km/h (0 Bft) O 90 0 min 0,000 mm 0 W/m 6,4 C 13,5 C 6,4 km/h (2 Bft) 100 %
20.04.2014 21:00 13,2 C 13,2 C 13,5 C 63 % 1004,2 hPa 0,0 l/m 0,9 km/h (0 Bft) O 82 0 min 0,000 mm 0 W/m 6,3 C 13,2 C 8,0 km/h (2 Bft) 100 %
20.04.2014 21:10 13,1 C 13,1 C 13,2 C 64 % 1004,3 hPa 0,0 l/m 0,6 km/h (0 Bft) N-NO 32 0 min 0,000 mm 0 W/m 6,4 C 13,1 C 4,8 km/h (1 Bft) 100 %
20.04.2014 21:20 13,0 C 13,0 C 13,1 C 63 % 1004,5 hPa 0,0 l/m 0,0 km/h (0 Bft) O-SO 107 0 min 0,000 mm 0 W/m 6,1 C 13,0 C 1,6 km/h (1 Bft) 100 %
20.04.2014 21:30 13,0 C 13,0 C 13,0 C 63 % 1004,4 hPa 0,0 l/m 0,1 km/h (0 Bft) O-NO 59 0 min 0,000 mm 0 W/m 6,1 C 13,0 C 3,2 km/h (1 Bft) 100 %
20.04.2014 21:40 13,0 C 13,0 C 13,0 C 62 % 1004,6 hPa 0,0 l/m 0,6 km/h (0 Bft) N-NO 23 0 min 0,000 mm 0 W/m 5,9 C 13,0 C 6,4 km/h (2 Bft) 100 %
20.04.2014 21:50 12,9 C 12,9 C 13,0 C 61 % 1004,5 hPa 0,0 l/m 0,3 km/h (0 Bft) N-NO 12 0 min 0,000 mm 0 W/m 5,6 C 12,9 C 4,8 km/h (1 Bft) 100 %
20.04.2014 22:00 12,8 C 12,8 C 12,9 C 61 % 1004,7 hPa 0,0 l/m 0,3 km/h (0 Bft) O-NO 63 0 min 0,026 mm 0 W/m 5,5 C 12,8 C 6,4 km/h (2 Bft) 91 %
20.04.2014 22:10 12,7 C 12,7 C 12,8 C 62 % 1004,6 hPa 0,0 l/m 0,4 km/h (0 Bft) O 83 0 min 0,000 mm 0 W/m 5,6 C 12,7 C 4,8 km/h (1 Bft) 100 %
20.04.2014 22:20 12,5 C 12,5 C 12,7 C 62 % 1004,6 hPa 0,0 l/m 0,3 km/h (0 Bft) NO 55 0 min 0,000 mm 0 W/m 5,4 C 12,5 C 4,8 km/h (1 Bft) 100 %
20.04.2014 22:30 12,2 C 12,2 C 12,5 C 63 % 1004,8 hPa 0,0 l/m 0,2 km/h (0 Bft) NO 49 0 min 0,000 mm 0 W/m 5,4 C 12,2 C 3,2 km/h (1 Bft) 100 %
20.04.2014 22:40 12,0 C 12,0 C 12,3 C 64 % 1004,8 hPa 0,0 l/m 0,2 km/h (0 Bft) O-NO 63 0 min 0,000 mm 0 W/m 5,4 C 12,0 C 3,2 km/h (1 Bft) 100 %
20.04.2014 22:50 11,8 C 11,8 C 12,0 C 65 % 1004,8 hPa 0,0 l/m 0,3 km/h (0 Bft) S-SO 148 0 min 0,000 mm 0 W/m 5,4 C 11,8 C 4,8 km/h (1 Bft) 100 %
20.04.2014 23:00 11,6 C 11,6 C 11,8 C 66 % 1004,8 hPa 0,0 l/m 0,3 km/h (0 Bft) N-NO 26 0 min 0,025 mm 0 W/m 5,5 C 11,6 C 4,8 km/h (1 Bft) 99 %
20.04.2014 23:10 11,5 C 11,5 C 11,6 C 66 % 1004,7 hPa 0,0 l/m 0,4 km/h (0 Bft) NO 40 0 min 0,000 mm 0 W/m 5,4 C 11,5 C 4,8 km/h (1 Bft) 100 %
20.04.2014 23:20 11,3 C 11,3 C 11,5 C 67 % 1004,8 hPa 0,0 l/m 0,0 km/h (0 Bft) NO 41 0 min 0,000 mm 0 W/m 5,4 C 11,3 C 1,6 km/h (1 Bft) 100 %
20.04.2014 23:30 11,1 C 11,1 C 11,3 C 68 % 1004,8 hPa 0,0 l/m 0,2 km/h (0 Bft) NO 40 0 min 0,000 mm 0 W/m 5,4 C 11,1 C 4,8 km/h (1 Bft) 100 %
20.04.2014 23:40 10,9 C 10,9 C 11,1 C 69 % 1004,8 hPa 0,0 l/m 0,3 km/h (0 Bft) NO 55 0 min 0,000 mm 0 W/m 5,4 C 10,9 C 4,8 km/h (1 Bft) 91 %
20.04.2014 23:50 10,8 C 10,8 C 10,9 C 70 % 1004,9 hPa 0,0 l/m 0,7 km/h (0 Bft) NO 52 0 min 0,000 mm 0 W/m 5,6 C 10,8 C 8,0 km/h (2 Bft) 99 %
_ Min-Zeit 05:30 05:30 05:40 17:20 17:40 - 00:40 - - - - - 22:30 05:30 03:30 22:00
Minimum _ 7,7 C 7,7 C 7,7 C 44 % 1003,3 hPa - 0,0 km/h (0 Bft) - - - - - 5,4 C 7,7 C 0,0 km/h (0 Bft) 91 %
_ Max-Zeit 17:20 17:20 17:20 04:20 00:30 00:00 16:30 - - 08:50 14:00 12:50 09:50 17:50 13:20 00:10
Maximum _ 18,7 C 18,6 C 18,7 C 87 % 1008,5 hPa 0,0 l/m 10,4 km/h
S-SO (2 Bft)
- - 10 min 0,356 mm 914 W/m 9,4 C 18,6 C 29,0 km/h
O-SO (5 Bft)
100 %
Durchschnitt _ 13,4 C 13,3 C 13,5 C 68 % 1005,3 hPa #0,0 l/m 2,2 km/h (1 Bft) O-SO - #8:30 h #2,616 mm 304 W/m 7,1 C 13,3 C 9,9 km/h (2 Bft) 100 %
PRIVATE WETTERSTATION BILLIGHEIM-ALLFELD - www.neckar-odenwald-wetter.de - Holger Sonntag